Time;durP1;ratioP1;P1;durP2;ratioP2;P2;SDS_P1;SDS_P2;PMS_P1;PMS_P2;Temp;Humidity;BMP_temperature;BMP_pressure;BME280_temperature;BME280_humidity;BME280_pressure;Samples;Min_cycle;Max_cycle;Signal;HPM_P1;HPM_P2
2021/06/29 00:01:28;;;;;;;17.40;15.80;;;17.10;99.90;;;;;;5067843;28;20205;-72
2021/06/29 00:03:55;;;;;;;16.48;14.98;;;17.10;99.90;;;;;;5068075;28;20889;-71
2021/06/29 00:06:22;;;;;;;15.45;13.95;;;17.10;99.90;;;;;;5065639;28;20205;-72
2021/06/29 00:08:49;;;;;;;15.55;14.15;;;17.00;99.90;;;;;;5065009;28;20292;-71
2021/06/29 00:11:16;;;;;;;16.30;14.70;;;17.00;99.90;;;;;;5068051;28;20630;-72
2021/06/29 00:13:44;;;;;;;15.10;13.70;;;17.00;99.90;;;;;;5067207;28;20207;-72
2021/06/29 00:16:12;;;;;;;15.32;13.93;;;17.10;99.90;;;;;;5065917;28;20205;-72
2021/06/29 00:18:39;;;;;;;14.15;12.90;;;17.10;99.90;;;;;;5066750;28;20594;-71
2021/06/29 00:21:06;;;;;;;12.48;11.48;;;17.10;99.90;;;;;;5065772;28;20255;-72
2021/06/29 00:23:38;;;;;;;12.25;11.15;;;17.00;99.90;;;;;;5059926;28;20662;-72
2021/06/29 00:26:05;;;;;;;11.18;10.13;;;17.00;99.90;;;;;;5064362;28;20205;-72
2021/06/29 00:28:32;;;;;;;11.60;10.60;;;17.00;99.90;;;;;;5065082;28;20216;-71
2021/06/29 00:30:59;;;;;;;11.07;10.18;;;16.90;99.90;;;;;;5058970;28;20295;-72
2021/06/29 00:33:27;;;;;;;11.13;10.15;;;16.90;99.90;;;;;;5065514;28;20225;-71
2021/06/29 00:35:54;;;;;;;13.15;11.95;;;16.90;99.90;;;;;;5066177;28;20276;-71
2021/06/29 00:38:21;;;;;;;11.82;10.60;;;16.90;99.90;;;;;;5063788;28;20205;-72
2021/06/29 00:40:48;;;;;;;12.48;11.38;;;16.80;99.90;;;;;;5065605;28;20286;-71
2021/06/29 00:43:15;;;;;;;11.27;10.25;;;16.80;99.90;;;;;;5056684;28;20289;-71
2021/06/29 00:45:42;;;;;;;11.55;10.45;;;16.80;99.90;;;;;;5060382;28;20299;-71
2021/06/29 00:48:09;;;;;;;11.18;10.27;;;16.80;99.90;;;;;;5066455;28;20244;-71
2021/06/29 00:50:37;;;;;;;10.98;10.02;;;16.80;99.90;;;;;;5058735;28;20725;-72
2021/06/29 00:53:05;;;;;;;11.32;10.35;;;16.80;99.90;;;;;;5066005;28;20332;-71
2021/06/29 00:55:32;;;;;;;11.50;10.50;;;16.80;99.90;;;;;;5065179;28;20197;-71
2021/06/29 00:57:59;;;;;;;10.85;10.02;;;16.80;99.90;;;;;;5067109;28;20197;-72
2021/06/29 01:00:26;;;;;;;10.88;9.98;;;16.90;99.90;;;;;;5063511;28;20700;-71
2021/06/29 01:02:53;;;;;;;9.90;9.20;;;16.90;99.90;;;;;;5066634;28;20287;-71
2021/06/29 01:05:20;;;;;;;10.32;9.52;;;16.90;99.90;;;;;;5065323;28;20309;-72
2021/06/29 01:07:48;;;;;;;10.95;10.05;;;16.80;99.90;;;;;;5065938;28;20201;-71
2021/06/29 01:10:15;;;;;;;11.25;10.25;;;16.70;99.90;;;;;;5066621;28;20236;-71
2021/06/29 01:12:42;;;;;;;11.77;10.77;;;16.70;99.90;;;;;;5064916;28;20231;-71
2021/06/29 01:15:10;;;;;;;10.30;9.30;;;16.80;99.90;;;;;;5060718;28;20206;-71
2021/06/29 01:17:37;;;;;;;10.15;9.35;;;16.80;99.90;;;;;;5066730;28;20212;-71
2021/06/29 01:20:08;;;;;;;11.13;10.15;;;16.80;99.90;;;;;;5057925;28;20201;-71
2021/06/29 01:22:36;;;;;;;10.35;9.52;;;16.80;99.90;;;;;;5068339;28;20201;-72
2021/06/29 01:25:04;;;;;;;11.52;10.43;;;16.90;99.90;;;;;;5043583;28;20193;-72
2021/06/29 01:27:40;;;;;;;11.60;10.60;;;16.90;99.90;;;;;;5059630;28;20272;-71
2021/06/29 01:32:52;;;;;;;11.77;10.77;;;16.80;99.90;;;;;;5065917;28;20314;-72
2021/06/29 01:35:20;;;;;;;11.20;10.30;;;16.90;99.90;;;;;;5059781;28;20224;-72
2021/06/29 01:37:49;;;;;;;12.00;10.90;;;16.80;99.90;;;;;;5065850;28;20299;-72
2021/06/29 01:40:19;;;;;;;13.18;11.98;;;16.80;99.90;;;;;;5061217;28;20209;-72
2021/06/29 01:42:51;;;;;;;14.05;12.85;;;16.80;99.90;;;;;;5064628;28;20215;-72
2021/06/29 01:45:18;;;;;;;14.95;13.50;;;16.80;99.90;;;;;;5064369;28;20197;-71
2021/06/29 01:47:56;;;;;;;14.38;13.10;;;16.70;99.90;;;;;;5066088;28;20259;-72
2021/06/29 01:50:24;;;;;;;14.35;12.05;;;16.80;99.90;;;;;;5066381;28;20212;-72
2021/06/29 01:52:57;;;;;;;12.15;10.95;;;16.70;99.90;;;;;;5058987;28;20315;-71
2021/06/29 01:55:24;;;;;;;12.68;11.57;;;16.70;99.90;;;;;;5063312;28;20211;-73
2021/06/29 01:57:52;;;;;;;12.25;11.05;;;16.70;99.90;;;;;;5062272;28;20303;-73
2021/06/29 02:00:19;;;;;;;14.82;13.35;;;16.70;99.90;;;;;;5061241;28;20200;-73
2021/06/29 02:02:47;;;;;;;14.70;13.30;;;16.60;99.90;;;;;;5065490;28;20607;-72
2021/06/29 02:05:15;;;;;;;14.18;12.60;;;16.60;99.90;;;;;;5059930;28;20193;-72
2021/06/29 02:07:43;;;;;;;14.05;12.70;;;16.60;99.90;;;;;;5062298;28;20943;-72
2021/06/29 02:10:11;;;;;;;13.75;12.35;;;16.60;99.90;;;;;;5064703;28;20203;-72
2021/06/29 02:12:38;;;;;;;15.43;11.73;;;16.60;99.90;;;;;;5064078;28;20319;-72
2021/06/29 02:15:06;;;;;;;11.10;10.25;;;16.60;99.90;;;;;;5057822;28;20206;-72
2021/06/29 02:17:33;;;;;;;9.50;8.70;;;16.50;99.90;;;;;;5060832;28;20295;-72
2021/06/29 02:20:00;;;;;;;9.93;9.02;;;16.50;99.90;;;;;;5065350;28;20207;-72
2021/06/29 02:22:27;;;;;;;9.70;8.80;;;16.50;99.90;;;;;;5069411;28;20240;-72
2021/06/29 02:24:55;;;;;;;9.60;8.80;;;16.50;99.90;;;;;;5060036;28;20286;-72
2021/06/29 02:27:22;;;;;;;9.30;8.52;;;16.50;99.90;;;;;;5063846;28;20278;-72
2021/06/29 02:29:49;;;;;;;9.93;9.13;;;16.60;99.90;;;;;;5064613;28;20737;-72
2021/06/29 02:32:16;;;;;;;9.88;8.55;;;16.60;99.90;;;;;;5058351;28;20793;-72
2021/06/29 02:34:43;;;;;;;9.32;8.57;;;16.50;99.90;;;;;;5063945;28;20312;-72
2021/06/29 02:37:09;;;;;;;9.65;8.85;;;16.50;99.90;;;;;;5062620;28;20770;-73
2021/06/29 02:39:36;;;;;;;9.85;8.95;;;16.60;99.90;;;;;;5064791;28;20204;-73
2021/06/29 02:42:06;;;;;;;8.32;7.63;;;16.60;99.90;;;;;;5062024;28;20901;-73
2021/06/29 02:44:34;;;;;;;8.60;7.90;;;16.60;99.90;;;;;;5062645;28;20280;-73
2021/06/29 02:47:01;;;;;;;8.65;7.85;;;16.50;99.90;;;;;;5065303;28;20830;-72
2021/06/29 02:49:28;;;;;;;8.88;8.18;;;16.50;99.90;;;;;;5058265;28;20201;-73
2021/06/29 02:51:55;;;;;;;9.32;8.52;;;16.50;99.90;;;;;;5064909;28;20773;-73
2021/06/29 02:54:21;;;;;;;9.07;8.35;;;16.50;99.90;;;;;;5064894;28;20228;-72
2021/06/29 02:56:48;;;;;;;8.57;7.88;;;16.40;99.90;;;;;;5058780;28;20296;-73
2021/06/29 02:59:17;;;;;;;9.75;8.85;;;16.50;99.90;;;;;;5064586;28;20204;-73
2021/06/29 03:01:45;;;;;;;9.10;8.20;;;16.50;99.90;;;;;;5059606;28;20209;-73
2021/06/29 03:04:12;;;;;;;8.35;7.75;;;16.40;99.90;;;;;;5061213;28;20741;-73
2021/06/29 03:06:39;;;;;;;12.10;9.23;;;16.40;99.90;;;;;;5059044;28;20296;-73
2021/06/29 03:09:08;;;;;;;11.10;10.00;;;16.40;99.90;;;;;;5064080;28;20562;-73
2021/06/29 03:11:35;;;;;;;9.25;8.55;;;16.40;99.90;;;;;;5062827;28;20212;-73
2021/06/29 03:14:02;;;;;;;9.10;8.30;;;16.40;99.90;;;;;;5063122;28;20347;-72
2021/06/29 03:16:31;;;;;;;10.52;9.65;;;16.40;99.90;;;;;;5055331;28;20298;-72
2021/06/29 03:18:59;;;;;;;10.57;9.48;;;16.40;99.90;;;;;;5062309;28;20204;-73
2021/06/29 03:21:26;;;;;;;11.68;9.82;;;16.40;99.90;;;;;;5073682;28;20334;-72
2021/06/29 03:23:54;;;;;;;9.25;8.55;;;16.40;99.90;;;;;;5068672;28;20292;-73
2021/06/29 03:26:20;;;;;;;10.35;9.43;;;16.40;99.90;;;;;;5066849;28;20207;-72
2021/06/29 03:28:47;;;;;;;9.82;8.93;;;16.40;99.90;;;;;;5067450;28;20205;-72
2021/06/29 03:31:14;;;;;;;12.65;10.25;;;16.40;99.90;;;;;;5065148;28;20216;-73
2021/06/29 03:33:43;;;;;;;10.95;10.05;;;16.60;99.90;;;;;;5063559;28;20330;-73
2021/06/29 03:36:10;;;;;;;9.48;8.68;;;16.60;99.90;;;;;;5067153;28;20730;-73
2021/06/29 03:38:37;;;;;;;10.57;9.77;;;16.60;99.90;;;;;;5066400;28;20269;-72
2021/06/29 03:41:04;;;;;;;11.73;10.52;;;16.50;99.90;;;;;;5064467;28;20255;-72
2021/06/29 03:43:34;;;;;;;12.65;11.15;;;16.50;99.90;;;;;;5067968;28;20199;-72
2021/06/29 03:46:01;;;;;;;12.90;11.60;;;16.50;99.90;;;;;;5068499;28;20577;-72
2021/06/29 03:48:28;;;;;;;12.52;11.35;;;16.50;99.90;;;;;;5067890;28;20204;-72
2021/06/29 03:50:57;;;;;;;13.68;12.45;;;16.50;99.90;;;;;;5065165;28;20205;-72
2021/06/29 03:53:24;;;;;;;12.90;11.85;;;16.50;99.90;;;;;;5066516;28;20251;-73
2021/06/29 03:55:50;;;;;;;14.95;13.65;;;16.60;99.90;;;;;;5062093;28;20730;-73
2021/06/29 03:58:17;;;;;;;13.23;12.02;;;16.60;99.90;;;;;;5068036;28;20236;-73
2021/06/29 04:00:44;;;;;;;13.05;11.95;;;16.60;99.90;;;;;;5064485;28;20676;-73
2021/06/29 04:03:11;;;;;;;13.52;11.77;;;16.70;99.90;;;;;;5064703;28;20201;-73
2021/06/29 04:05:38;;;;;;;13.10;11.82;;;16.70;99.90;;;;;;5059505;28;20565;-72
2021/06/29 04:08:07;;;;;;;14.10;12.90;;;16.60;99.90;;;;;;5063031;28;20312;-73
2021/06/29 04:10:34;;;;;;;12.73;11.43;;;16.70;99.90;;;;;;5062904;28;20291;-73
2021/06/29 04:13:01;;;;;;;12.73;11.45;;;16.80;99.90;;;;;;5063771;28;20332;-73
2021/06/29 04:15:28;;;;;;;12.52;11.43;;;16.70;99.90;;;;;;5066950;28;20284;-73
2021/06/29 04:17:55;;;;;;;10.63;9.73;;;16.60;99.90;;;;;;5066508;28;20211;-73
2021/06/29 04:20:22;;;;;;;12.00;10.80;;;16.60;99.90;;;;;;5068118;28;20330;-73
2021/06/29 04:22:49;;;;;;;10.52;9.48;;;16.60;99.90;;;;;;5066899;28;20309;-72
2021/06/29 04:25:17;;;;;;;10.75;9.70;;;16.60;99.90;;;;;;5062344;28;20194;-73
2021/06/29 04:27:44;;;;;;;10.85;9.88;;;16.50;99.90;;;;;;5063502;28;20205;-73
2021/06/29 04:30:13;;;;;;;10.70;9.70;;;16.50;99.90;;;;;;5063896;28;20251;-73
2021/06/29 04:32:40;;;;;;;9.98;9.18;;;16.50;99.90;;;;;;5062732;28;20201;-73
2021/06/29 04:35:08;;;;;;;9.27;8.50;;;16.50;99.90;;;;;;5066236;28;20371;-73
2021/06/29 04:37:34;;;;;;;13.65;9.48;;;16.40;99.90;;;;;;5065916;28;20227;-71
2021/06/29 04:40:01;;;;;;;21.73;13.45;;;16.30;99.90;;;;;;5067164;28;20209;-72
2021/06/29 04:42:29;;;;;;;12.45;10.50;;;16.20;99.90;;;;;;5066900;28;20283;-72
2021/06/29 04:44:56;;;;;;;10.23;9.43;;;16.20;99.90;;;;;;5067076;28;20205;-72
2021/06/29 04:47:23;;;;;;;9.13;8.32;;;16.20;99.90;;;;;;5067227;28;20201;-72
2021/06/29 04:49:52;;;;;;;9.27;8.57;;;16.20;99.90;;;;;;5067095;28;20201;-72
2021/06/29 04:52:19;;;;;;;9.35;8.43;;;16.20;99.90;;;;;;5066088;28;20228;-73
2021/06/29 04:54:46;;;;;;;10.70;9.80;;;16.20;99.90;;;;;;5066292;28;20239;-73
2021/06/29 04:57:12;;;;;;;9.65;8.90;;;16.40;99.90;;;;;;5063952;28;20201;-73
2021/06/29 04:59:41;;;;;;;10.40;9.40;;;16.50;99.90;;;;;;5065091;28;20292;-73
2021/06/29 05:02:07;;;;;;;10.02;9.25;;;16.50;99.90;;;;;;5062600;28;20434;-74
2021/06/29 05:04:34;;;;;;;9.95;9.18;;;16.60;99.90;;;;;;5066524;28;20250;-73
2021/06/29 05:07:01;;;;;;;11.05;10.00;;;16.60;99.90;;;;;;5064976;28;20284;-72
2021/06/29 05:09:28;;;;;;;11.73;10.73;;;16.60;99.90;;;;;;5064987;28;20284;-72
2021/06/29 05:11:55;;;;;;;11.35;10.45;;;16.70;99.90;;;;;;5057506;28;20200;-71
2021/06/29 05:14:21;;;;;;;11.20;10.30;;;16.70;99.90;;;;;;5064585;28;20323;-72
2021/06/29 05:16:50;;;;;;;11.77;10.73;;;16.70;99.90;;;;;;5064853;28;20200;-72
2021/06/29 05:19:19;;;;;;;12.70;11.60;;;16.60;99.90;;;;;;5066094;28;20201;-72
2021/06/29 05:21:45;;;;;;;13.07;11.98;;;16.60;99.90;;;;;;5062009;28;20205;-71
2021/06/29 05:24:12;;;;;;;13.80;12.57;;;16.60;99.90;;;;;;5065326;28;20742;-71
2021/06/29 05:26:39;;;;;;;14.20;12.90;;;16.60;99.90;;;;;;5065002;28;20207;-71
2021/06/29 05:29:06;;;;;;;13.98;12.88;;;16.60;99.90;;;;;;5065580;28;20205;-71
2021/06/29 05:31:33;;;;;;;15.85;12.93;;;16.60;99.90;;;;;;5065070;28;20213;-71
2021/06/29 05:34:01;;;;;;;12.93;11.85;;;16.70;99.90;;;;;;5063581;28;20315;-71
2021/06/29 05:36:39;;;;;;;12.48;11.48;;;16.70;99.90;;;;;;5058294;28;20209;-71
2021/06/29 05:39:06;;;;;;;11.48;10.57;;;16.70;99.90;;;;;;5063775;28;20201;-71
2021/06/29 05:41:32;;;;;;;13.75;10.50;;;16.80;99.90;;;;;;5056102;28;20216;-71
2021/06/29 05:43:59;;;;;;;11.93;10.88;;;16.70;99.90;;;;;;5056550;28;20197;-70
2021/06/29 05:46:26;;;;;;;12.23;11.13;;;16.70;99.90;;;;;;5060766;28;20649;-71
2021/06/29 05:48:53;;;;;;;10.63;9.60;;;16.70;99.90;;;;;;5058119;28;20206;-71
2021/06/29 05:51:22;;;;;;;10.52;9.57;;;16.70;99.90;;;;;;5065498;28;20284;-71
2021/06/29 05:53:56;;;;;;;8.40;7.78;;;16.70;99.90;;;;;;5065395;28;20224;-70
2021/06/29 05:56:26;;;;;;;9.65;8.85;;;16.70;99.90;;;;;;5061330;28;20547;-70
2021/06/29 05:58:56;;;;;;;10.05;9.25;;;16.80;99.90;;;;;;5059922;28;20209;-70
2021/06/29 06:01:22;;;;;;;9.80;8.80;;;16.80;99.90;;;;;;5065221;28;20208;-70
2021/06/29 06:03:49;;;;;;;12.68;11.43;;;16.90;99.90;;;;;;5062093;28;20209;-71
2021/06/29 06:06:16;;;;;;;11.80;10.70;;;17.00;99.90;;;;;;5065877;28;20197;-70
2021/06/29 06:08:44;;;;;;;12.93;11.82;;;17.10;99.90;;;;;;5065761;28;20196;-70
2021/06/29 06:11:11;;;;;;;11.68;10.68;;;17.10;99.90;;;;;;5065503;28;20201;-70
2021/06/29 06:13:38;;;;;;;11.07;10.18;;;17.30;99.90;;;;;;5065535;28;20669;-70
2021/06/29 06:16:06;;;;;;;12.82;11.68;;;17.40;99.90;;;;;;5063881;28;20300;-70
2021/06/29 06:18:36;;;;;;;12.25;11.25;;;17.50;99.90;;;;;;5063672;28;20208;-70
2021/06/29 06:21:03;;;;;;;13.05;11.95;;;17.70;99.90;;;;;;5060370;28;20204;-70
2021/06/29 06:23:30;;;;;;;11.38;10.38;;;17.90;99.90;;;;;;5064570;28;20207;-70
2021/06/29 06:25:59;;;;;;;11.98;11.02;;;18.00;99.90;;;;;;5065043;28;20240;-70
2021/06/29 06:28:26;;;;;;;10.88;9.88;;;18.20;99.90;;;;;;5063823;28;20212;-70
2021/06/29 06:30:53;;;;;;;9.43;8.73;;;18.50;99.90;;;;;;5063778;28;20623;-70
2021/06/29 06:33:21;;;;;;;8.90;8.30;;;19.10;99.90;;;;;;5058328;28;20198;-70
2021/06/29 06:35:48;;;;;;;7.70;7.20;;;20.10;99.90;;;;;;5065050;28;20670;-68
2021/06/29 06:38:15;;;;;;;6.17;5.67;;;21.80;99.90;;;;;;5064487;28;20725;-70
2021/06/29 06:40:43;;;;;;;5.70;5.40;;;23.40;99.90;;;;;;5060645;28;20626;-70
2021/06/29 06:43:12;;;;;;;5.20;4.80;;;24.30;99.90;;;;;;5064488;28;20635;-71
2021/06/29 06:45:39;;;;;;;4.57;4.23;;;25.20;99.90;;;;;;5065284;28;21096;-70
2021/06/29 06:48:07;;;;;;;4.33;4.07;;;25.70;99.90;;;;;;5061006;28;21318;-70
2021/06/29 06:50:35;;;;;;;4.50;4.20;;;25.90;99.80;;;;;;5064043;28;21298;-71
2021/06/29 06:53:01;;;;;;;4.03;3.77;;;25.70;99.50;;;;;;5066234;28;21023;-71
2021/06/29 06:55:29;;;;;;;3.93;3.63;;;25.90;99.00;;;;;;5066125;28;20675;-71
2021/06/29 06:57:56;;;;;;;3.57;3.37;;;26.50;97.50;;;;;;5069212;28;21016;-70
2021/06/29 07:00:26;;;;;;;3.20;3.10;;;27.80;95.00;;;;;;5068286;28;21038;-71
2021/06/29 07:02:54;;;;;;;4.70;3.10;;;29.20;91.90;;;;;;5068698;28;20619;-71
2021/06/29 07:05:22;;;;;;;3.30;3.10;;;29.30;91.80;;;;;;5066289;28;20627;-71
2021/06/29 07:07:49;;;;;;;3.00;2.90;;;28.70;91.40;;;;;;5068470;28;20631;-71
2021/06/29 07:10:16;;;;;;;3.13;2.80;;;29.10;91.30;;;;;;5068481;28;20708;-71
2021/06/29 07:12:44;;;;;;;2.50;2.40;;;30.10;86.80;;;;;;5067867;28;20734;-71
2021/06/29 07:15:11;;;;;;;2.53;2.33;;;31.10;82.90;;;;;;5068247;28;21065;-71
2021/06/29 07:17:40;;;;;;;2.53;2.43;;;31.70;83.80;;;;;;5068791;28;20718;-71
2021/06/29 07:20:09;;;;;;;2.00;2.00;;;31.80;80.00;;;;;;5068730;28;21454;-69
2021/06/29 07:22:36;;;;;;;2.90;2.80;;;31.60;82.30;;;;;;5068305;28;20635;-69
2021/06/29 07:25:05;;;;;;;3.77;2.90;;;31.50;81.20;;;;;;5067079;28;20706;-69
2021/06/29 07:27:32;;;;;;;2.60;2.40;;;31.50;78.90;;;;;;5068308;28;20666;-69
2021/06/29 07:30:00;;;;;;;2.20;2.10;;;32.70;76.50;;;;;;5066420;28;20666;-69
2021/06/29 07:32:28;;;;;;;2.20;2.10;;;32.70;73.70;;;;;;5068530;28;20667;-69
2021/06/29 07:34:56;;;;;;;2.67;2.57;;;32.10;72.20;;;;;;5067943;28;20631;-69
2021/06/29 07:37:23;;;;;;;2.23;2.17;;;31.60;75.50;;;;;;5068625;28;20764;-71
2021/06/29 07:39:50;;;;;;;2.20;2.10;;;31.70;76.90;;;;;;5064615;28;20651;-70
2021/06/29 07:42:18;;;;;;;2.43;2.33;;;31.60;76.50;;;;;;5063171;28;20631;-69
2021/06/29 07:44:44;;;;;;;2.67;2.20;;;32.10;74.20;;;;;;5062605;28;21278;-69
2021/06/29 07:47:12;;;;;;;2.20;2.10;;;31.80;70.20;;;;;;5066355;28;21043;-70
2021/06/29 07:49:39;;;;;;;2.27;2.17;;;32.10;69.50;;;;;;5067559;28;20638;-69
2021/06/29 07:52:08;;;;;;;2.33;2.23;;;32.40;72.20;;;;;;5068210;28;20717;-69
2021/06/29 07:54:35;;;;;;;2.90;2.33;;;31.70;67.70;;;;;;5060308;28;21112;-69
2021/06/29 07:57:02;;;;;;;2.57;2.47;;;31.10;76.10;;;;;;5068280;28;20669;-69
2021/06/29 07:59:29;;;;;;;2.27;2.17;;;31.30;76.40;;;;;;5062888;28;21095;-69
2021/06/29 08:01:56;;;;;;;2.50;2.40;;;31.00;77.40;;;;;;5066728;28;20665;-69
2021/06/29 08:04:23;;;;;;;2.30;2.20;;;31.30;75.50;;;;;;5061029;28;21041;-69
2021/06/29 08:06:50;;;;;;;2.40;2.30;;;31.80;72.00;;;;;;5067013;28;20658;-69
2021/06/29 08:09:18;;;;;;;2.20;2.00;;;31.90;73.00;;;;;;5067502;28;20630;-69
2021/06/29 08:11:45;;;;;;;2.30;2.20;;;31.60;71.70;;;;;;5064642;28;20653;-69
2021/06/29 08:14:12;;;;;;;2.20;2.10;;;31.10;72.40;;;;;;5066902;28;20630;-69
2021/06/29 08:16:39;;;;;;;2.53;2.43;;;30.30;71.70;;;;;;5064406;28;20642;-69
2021/06/29 08:19:06;;;;;;;2.50;2.30;;;30.00;72.30;;;;;;5064036;28;20631;-69
2021/06/29 08:21:33;;;;;;;2.20;2.10;;;30.10;76.60;;;;;;5064268;28;21148;-69
2021/06/29 08:24:01;;;;;;;1.90;1.80;;;31.00;72.30;;;;;;5066712;28;20643;-71
2021/06/29 08:26:29;;;;;;;1.30;1.30;;;31.60;71.10;;;;;;5066495;28;20659;-71
2021/06/29 08:28:56;;;;;;;1.57;1.57;;;32.10;69.70;;;;;;5061500;28;21532;-69
2021/06/29 08:31:24;;;;;;;1.83;1.80;;;32.10;69.20;;;;;;5063874;28;20639;-69
2021/06/29 08:33:53;;;;;;;1.50;1.50;;;31.80;70.10;;;;;;5064716;28;21244;-69
2021/06/29 08:36:20;;;;;;;1.67;1.67;;;32.00;67.80;;;;;;5066346;28;20695;-69
2021/06/29 08:38:48;;;;;;;1.50;1.50;;;32.50;64.10;;;;;;5067702;28;21047;-69
2021/06/29 08:41:16;;;;;;;1.47;1.37;;;32.00;68.30;;;;;;5066091;28;20719;-69
2021/06/29 08:43:45;;;;;;;1.07;1.07;;;31.30;65.10;;;;;;5066799;28;20640;-72
2021/06/29 08:46:12;;;;;;;1.70;1.60;;;31.00;66.70;;;;;;5065600;28;20762;-69
2021/06/29 08:48:39;;;;;;;1.63;1.53;;;30.50;68.90;;;;;;5066817;28;20647;-69
2021/06/29 08:51:07;;;;;;;1.80;1.70;;;31.30;68.10;;;;;;5066007;28;20631;-69
2021/06/29 08:53:35;;;;;;;1.70;1.70;;;31.10;67.10;;;;;;5067343;28;21038;-69
2021/06/29 08:56:03;;;;;;;1.90;1.80;;;31.30;68.90;;;;;;5066433;28;20712;-68
2021/06/29 08:58:33;;;;;;;2.20;2.10;;;31.60;66.70;;;;;;5066472;28;20673;-69
2021/06/29 09:01:02;;;;;;;1.73;1.63;;;31.30;68.10;;;;;;5064713;28;20639;-69
2021/06/29 09:03:29;;;;;;;1.80;1.70;;;31.30;71.20;;;;;;5066345;28;20714;-68
2021/06/29 09:05:56;;;;;;;1.87;1.77;;;30.20;67.00;;;;;;5065277;28;21310;-68
2021/06/29 09:08:25;;;;;;;1.50;1.50;;;30.30;65.90;;;;;;5066615;28;20661;-68
2021/06/29 09:11:09;;;;;;;1.60;1.57;;;31.30;65.60;;;;;;5066952;28;20702;-68
2021/06/29 09:13:36;;;;;;;1.90;1.80;;;31.30;67.90;;;;;;5070269;28;20641;-68
2021/06/29 09:16:05;;;;;;;2.13;2.00;;;31.60;65.40;;;;;;5063833;28;20634;-68
2021/06/29 09:18:35;;;;;;;2.70;2.50;;;30.30;67.90;;;;;;5065860;28;20637;-68
2021/06/29 09:21:04;;;;;;;1.80;1.80;;;30.20;70.00;;;;;;5063684;28;20631;-68
2021/06/29 09:23:32;;;;;;;2.23;2.13;;;31.00;65.10;;;;;;5066100;28;20618;-68
2021/06/29 09:26:03;;;;;;;2.17;2.07;;;31.10;67.00;;;;;;5064963;28;20675;-68
2021/06/29 09:28:33;;;;;;;2.30;2.20;;;32.00;64.20;;;;;;5066968;28;20655;-68
2021/06/29 09:31:03;;;;;;;2.40;2.20;;;31.60;62.30;;;;;;5064825;28;21000;-68
2021/06/29 09:33:34;;;;;;;1.90;1.90;;;29.80;68.00;;;;;;5063837;28;20631;-70
2021/06/29 09:36:04;;;;;;;2.20;2.10;;;30.20;69.80;;;;;;5064062;28;21287;-70
2021/06/29 09:38:33;;;;;;;2.37;2.17;;;31.10;64.40;;;;;;5066011;28;21198;-70
2021/06/29 09:41:03;;;;;;;2.33;2.20;;;31.80;63.40;;;;;;5062073;28;20620;-70
2021/06/29 09:43:34;;;;;;;3.10;2.30;;;30.10;71.10;;;;;;5063052;28;20637;-70
2021/06/29 09:46:02;;;;;;;2.40;2.30;;;30.10;73.20;;;;;;5062510;28;21149;-70
2021/06/29 09:48:39;;;;;;;2.40;2.30;;;30.40;70.20;;;;;;5064674;28;20721;-70
2021/06/29 09:51:12;;;;;;;2.13;2.03;;;30.40;70.10;;;;;;5066351;28;20624;-70
2021/06/29 09:53:41;;;;;;;2.13;2.00;;;29.90;72.40;;;;;;5065321;28;21951;-68
2021/06/29 09:56:13;;;;;;;3.40;1.90;;;30.30;67.50;;;;;;5061385;28;21318;-68
2021/06/29 09:58:42;;;;;;;2.00;2.00;;;31.10;66.00;;;;;;5065708;28;21143;-67
2021/06/29 10:01:09;;;;;;;2.30;2.20;;;30.50;69.00;;;;;;5064712;28;20716;-67
2021/06/29 10:03:41;;;;;;;2.60;2.40;;;29.30;70.40;;;;;;5061068;28;21630;-70
2021/06/29 10:06:12;;;;;;;2.13;2.03;;;29.20;71.40;;;;;;5058652;28;20752;-70
2021/06/29 10:08:41;;;;;;;2.50;2.30;;;29.80;66.80;;;;;;5060959;28;20623;-70
2021/06/29 10:11:18;;;;;;;2.10;2.00;;;29.80;69.20;;;;;;5064728;28;21199;-69
2021/06/29 10:13:48;;;;;;;2.07;1.97;;;30.30;65.90;;;;;;5066119;28;20627;-70
2021/06/29 10:16:17;;;;;;;1.73;1.73;;;29.20;69.20;;;;;;5065109;28;20754;-69
2021/06/29 10:18:49;;;;;;;2.00;1.90;;;28.40;70.90;;;;;;5064747;28;20626;-69
2021/06/29 10:21:22;;;;;;;2.57;2.20;;;28.40;70.20;;;;;;5063552;28;21348;-69
2021/06/29 10:23:53;;;;;;;2.30;2.10;;;29.10;72.50;;;;;;5064707;28;21407;-69
2021/06/29 10:26:22;;;;;;;1.97;1.87;;;29.00;70.30;;;;;;5063310;28;20783;-69
2021/06/29 10:28:50;;;;;;;2.07;1.97;;;28.60;71.50;;;;;;5064778;28;21184;-69
2021/06/29 10:31:23;;;;;;;2.33;2.23;;;27.90;72.00;;;;;;5062155;28;20693;-70
2021/06/29 10:33:53;;;;;;;2.40;2.30;;;27.10;73.50;;;;;;5065280;28;20709;-69
2021/06/29 10:36:21;;;;;;;2.33;2.23;;;27.70;75.60;;;;;;5064547;28;20646;-69
2021/06/29 10:38:48;;;;;;;2.23;2.13;;;27.80;77.60;;;;;;5065581;28;20664;-68
2021/06/29 10:41:16;;;;;;;2.30;2.20;;;28.20;71.50;;;;;;5064497;28;20632;-69
2021/06/29 10:43:44;;;;;;;2.20;2.10;;;28.30;71.90;;;;;;5064111;28;20623;-70
2021/06/29 10:46:41;;;;;;;2.03;1.93;;;27.60;77.60;;;;;;5063962;28;20679;-69
2021/06/29 10:49:35;;;;;;;2.20;2.10;;;28.00;70.70;;;;;;5059197;28;20623;-69
2021/06/29 10:52:05;;;;;;;2.13;2.03;;;27.80;76.50;;;;;;5054627;28;20651;-69
2021/06/29 10:54:46;;;;;;;2.17;2.07;;;27.80;73.10;;;;;;5062088;28;21104;-69
2021/06/29 10:57:15;;;;;;;1.90;1.80;;;27.40;71.70;;;;;;5063812;28;20631;-69
2021/06/29 10:59:49;;;;;;;2.00;1.90;;;27.30;73.20;;;;;;5063597;28;20623;-69
2021/06/29 11:02:29;;;;;;;2.13;2.03;;;27.70;71.30;;;;;;5065759;28;20623;-69
2021/06/29 11:04:59;;;;;;;2.20;2.10;;;28.10;71.20;;;;;;5064197;28;20667;-69
2021/06/29 11:07:47;;;;;;;2.30;2.20;;;28.50;70.70;;;;;;5063761;28;21079;-69
2021/06/29 11:10:28;;;;;;;2.47;2.37;;;28.30;73.20;;;;;;5061144;28;20627;-69
2021/06/29 11:12:57;;;;;;;2.30;2.20;;;27.80;79.00;;;;;;5060163;28;20631;-69
2021/06/29 11:15:43;;;;;;;2.63;2.47;;;27.80;73.60;;;;;;5064438;28;20634;-68
2021/06/29 11:18:10;;;;;;;2.77;2.57;;;27.60;77.60;;;;;;5063036;28;20722;-68
2021/06/29 11:20:41;;;;;;;2.43;2.33;;;27.80;77.80;;;;;;5064893;28;20639;-68
2021/06/29 11:23:10;;;;;;;2.37;2.27;;;27.20;81.20;;;;;;5064299;28;20599;-68
2021/06/29 11:25:43;;;;;;;2.20;2.10;;;26.70;81.50;;;;;;5063580;28;20679;-68
2021/06/29 11:28:13;;;;;;;2.77;2.67;;;26.70;83.50;;;;;;5065570;28;20636;-68
2021/06/29 11:30:58;;;;;;;2.63;2.53;;;26.80;79.00;;;;;;5063349;28;20654;-68
2021/06/29 11:33:49;;;;;;;1.93;1.83;;;27.40;78.90;;;;;;5056081;28;20734;-68
2021/06/29 11:36:43;;;;;;;2.40;2.30;;;27.70;77.70;;;;;;5064127;28;20613;-68
2021/06/29 11:39:40;;;;;;;2.90;2.70;;;28.10;78.00;;;;;;5058097;28;20653;-68
2021/06/29 11:42:13;;;;;;;2.70;2.60;;;28.60;77.10;;;;;;5067057;28;20617;-69
2021/06/29 11:44:44;;;;;;;2.50;2.40;;;28.40;74.20;;;;;;5067376;28;21153;-68
2021/06/29 11:47:13;;;;;;;2.60;2.50;;;28.30;75.00;;;;;;5067408;28;20656;-68
2021/06/29 11:49:44;;;;;;;2.90;2.80;;;28.20;80.20;;;;;;5068274;28;20704;-68
2021/06/29 11:52:27;;;;;;;2.33;2.23;;;28.40;79.30;;;;;;5068729;28;20619;-68
2021/06/29 11:54:57;;;;;;;2.73;2.60;;;28.60;75.00;;;;;;5064555;28;20618;-68
2021/06/29 11:57:25;;;;;;;2.47;2.37;;;28.20;74.10;;;;;;5068273;28;20594;-68
2021/06/29 11:59:54;;;;;;;2.70;2.60;;;28.10;75.70;;;;;;5068249;28;20636;-69
2021/06/29 12:02:31;;;;;;;2.50;2.40;;;28.20;75.70;;;;;;5067256;28;20721;-68
2021/06/29 12:05:02;;;;;;;2.93;2.83;;;28.10;75.30;;;;;;5066906;28;20605;-68
2021/06/29 12:07:32;;;;;;;2.90;2.70;;;27.80;76.80;;;;;;5068276;28;20627;-68
2021/06/29 12:09:59;;;;;;;2.53;2.43;;;27.80;78.70;;;;;;5067372;28;20710;-68
2021/06/29 12:12:28;;;;;;;2.53;2.43;;;28.00;84.80;;;;;;5066498;28;20634;-68
2021/06/29 12:14:59;;;;;;;3.10;2.90;;;27.80;80.40;;;;;;5063268;28;20716;-68
2021/06/29 12:17:29;;;;;;;3.00;2.80;;;28.00;78.50;;;;;;5068368;28;20716;-68
2021/06/29 12:20:06;;;;;;;2.67;2.57;;;28.30;80.60;;;;;;5066185;28;20609;-69
2021/06/29 12:22:37;;;;;;;2.80;2.70;;;28.90;82.00;;;;;;5064958;28;20646;-68
2021/06/29 12:25:07;;;;;;;3.27;3.07;;;28.80;76.90;;;;;;5057284;28;20639;-68
2021/06/29 12:27:42;;;;;;;4.03;2.60;;;28.10;79.50;;;;;;5064759;28;20651;-69
2021/06/29 12:30:21;;;;;;;2.70;2.50;;;28.00;81.10;;;;;;5062255;28;20638;-68
2021/06/29 12:32:48;;;;;;;2.80;2.70;;;28.20;81.10;;;;;;5060137;28;20628;-69
2021/06/29 12:35:18;;;;;;;2.63;2.53;;;28.20;80.30;;;;;;5059263;28;20623;-68
2021/06/29 12:37:54;;;;;;;3.20;3.00;;;27.90;81.50;;;;;;5060379;28;21093;-68
2021/06/29 12:40:21;;;;;;;2.80;2.60;;;27.60;84.70;;;;;;5066590;28;20686;-68
2021/06/29 12:42:48;;;;;;;2.93;2.73;;;27.50;84.30;;;;;;5067376;28;20718;-69
2021/06/29 12:45:19;;;;;;;3.13;2.93;;;27.50;86.00;;;;;;5058652;28;20599;-68
2021/06/29 12:47:46;;;;;;;3.03;2.83;;;27.30;83.70;;;;;;5058068;28;21192;-68
2021/06/29 12:50:13;;;;;;;3.20;3.03;;;27.00;85.40;;;;;;5066481;28;21254;-68
2021/06/29 12:52:40;;;;;;;3.57;3.27;;;26.80;86.30;;;;;;5061915;28;20617;-69